createdAt,value
2018-09-11T00:00:58.483Z,0
2018-09-11T00:01:58.502Z,0
2018-09-11T00:02:58.506Z,0
2018-09-11T00:03:58.986Z,0
2018-09-11T00:04:58.997Z,0
2018-09-11T00:05:58.545Z,0
2018-09-11T00:06:58.564Z,0
2018-09-11T00:07:58.579Z,0
2018-09-11T00:08:59.434Z,0
2018-09-11T00:09:59.068Z,0
2018-09-11T00:10:58.519Z,0
2018-09-11T00:11:58.560Z,0
2018-09-11T00:12:58.525Z,0
2018-09-11T00:13:58.543Z,0
2018-09-11T00:14:58.514Z,0
2018-09-11T00:15:59.010Z,0
2018-09-11T00:16:58.519Z,0
2018-09-11T00:17:58.526Z,0
2018-09-11T00:18:58.570Z,0
2018-09-11T00:19:58.540Z,0
2018-09-11T00:20:58.554Z,0
2018-09-11T00:21:58.905Z,0
2018-09-11T00:22:58.544Z,0
2018-09-11T00:23:58.577Z,0
2018-09-11T00:24:58.574Z,0
2018-09-11T00:25:58.566Z,0
2018-09-11T00:26:58.570Z,0
2018-09-11T00:27:58.948Z,0
2018-09-11T00:28:58.570Z,0
2018-09-11T00:29:58.587Z,0
2018-09-11T00:30:58.586Z,0
2018-09-11T00:31:58.585Z,0
2018-09-11T00:32:58.557Z,0
2018-09-11T00:33:58.974Z,0
2018-09-11T00:34:58.574Z,0
2018-09-11T00:35:58.544Z,0
2018-09-11T00:36:58.516Z,0
2018-09-11T00:37:58.566Z,0
2018-09-11T00:38:58.578Z,0
2018-09-11T00:39:59.941Z,0
2018-09-11T00:40:58.600Z,0
2018-09-11T00:41:58.652Z,0
2018-09-11T00:42:58.595Z,0
2018-09-11T00:43:58.547Z,0
2018-09-11T00:44:58.581Z,0
2018-09-11T00:45:59.886Z,0
2018-09-11T00:46:58.592Z,0
2018-09-11T00:47:58.624Z,0
2018-09-11T00:48:58.605Z,0
2018-09-11T00:49:58.580Z,0
2018-09-11T00:50:58.586Z,0
2018-09-11T00:52:02.894Z,0
2018-09-11T00:52:58.596Z,0
2018-09-11T00:53:58.593Z,0
2018-09-11T00:54:58.608Z,0
2018-09-11T00:55:58.575Z,0
2018-09-11T00:56:58.589Z,0
2018-09-11T00:57:58.922Z,0
2018-09-11T00:58:58.907Z,0
2018-09-11T00:59:58.884Z,0
2018-09-11T01:00:58.570Z,0
2018-09-11T01:01:58.627Z,0
2018-09-11T01:02:58.595Z,0
2018-09-11T01:03:58.931Z,0
2018-09-11T01:04:58.633Z,0
2018-09-11T01:05:58.616Z,0
2018-09-11T01:06:58.625Z,0
2018-09-11T01:07:58.596Z,0
2018-09-11T01:08:59.225Z,0
2018-09-11T01:09:58.993Z,0
2018-09-11T01:10:58.756Z,0
2018-09-11T01:11:58.706Z,0
2018-09-11T01:12:58.615Z,0
2018-09-11T01:18:14.870Z,0
2018-09-11T01:18:27.126Z,0
2018-09-11T01:19:27.124Z,0
2018-09-11T01:20:27.405Z,0
2018-09-11T01:21:27.147Z,0
2018-09-11T01:22:27.124Z,0
2018-09-11T01:23:27.501Z,0
2018-09-11T01:24:27.197Z,0
2018-09-11T01:25:27.092Z,0
2018-09-11T01:26:27.208Z,0
2018-09-11T01:27:27.139Z,0
2018-09-11T01:28:27.122Z,0
2018-09-11T01:29:27.497Z,0
2018-09-11T01:30:27.130Z,0
2018-09-11T01:31:27.126Z,0
2018-09-11T01:32:27.104Z,0
2018-09-11T01:33:27.162Z,0
2018-09-11T01:34:27.128Z,0
2018-09-11T01:35:31.016Z,0
2018-09-11T01:36:27.139Z,0
2018-09-11T01:37:27.178Z,0
2018-09-11T01:38:27.120Z,0
2018-09-11T01:39:27.155Z,0
2018-09-11T01:40:27.203Z,0
2018-09-11T01:41:27.539Z,0
2018-09-11T01:42:27.186Z,0
2018-09-11T01:43:27.151Z,0
2018-09-11T01:44:27.183Z,0
2018-09-11T01:45:27.155Z,0
2018-09-11T01:46:27.171Z,0
2018-09-11T01:47:27.552Z,0
2018-09-11T01:48:27.147Z,0
2018-09-11T01:49:27.189Z,0
2018-09-11T01:50:27.164Z,0
2018-09-11T01:51:27.144Z,0
2018-09-11T01:52:27.137Z,0
2018-09-11T01:53:27.658Z,0
2018-09-11T01:54:27.214Z,0
2018-09-11T01:55:27.208Z,0
2018-09-11T01:56:27.208Z,0
2018-09-11T01:57:27.189Z,0
2018-09-11T01:58:27.187Z,0
2018-09-11T01:59:27.492Z,0
2018-09-11T02:00:27.219Z,0
2018-09-11T02:01:27.233Z,0
2018-09-11T02:02:27.235Z,0
2018-09-11T02:03:27.217Z,0
2018-09-11T02:04:27.250Z,0
2018-09-11T02:05:27.540Z,0
2018-09-11T02:06:27.211Z,0
2018-09-11T02:07:27.244Z,0
2018-09-11T02:08:27.220Z,0
2018-09-11T02:09:27.217Z,0
2018-09-11T02:10:27.212Z,0
2018-09-11T02:11:27.571Z,0
2018-09-11T02:12:27.204Z,0
2018-09-11T02:13:27.167Z,0
2018-09-11T02:14:27.217Z,0
2018-09-11T02:15:27.259Z,0
2018-09-11T02:16:27.272Z,0
2018-09-11T02:17:28.627Z,0
2018-09-11T02:18:27.241Z,0
2018-09-11T02:19:27.211Z,0
2018-09-11T02:20:27.227Z,0
2018-09-11T02:21:27.290Z,0
2018-09-11T02:22:27.263Z,0
2018-09-11T02:23:27.551Z,0
2018-09-11T02:24:27.251Z,0
2018-09-11T02:25:27.321Z,0
2018-09-11T02:26:27.191Z,0
2018-09-11T02:27:27.188Z,0
2018-09-11T02:28:27.245Z,0
2018-09-11T02:29:27.580Z,0
2018-09-11T02:30:27.249Z,0
2018-09-11T02:31:27.221Z,0
2018-09-11T02:32:27.262Z,0
2018-09-11T02:33:27.235Z,0
2018-09-11T02:34:27.243Z,0
2018-09-11T02:39:44.688Z,0
2018-09-11T02:39:56.978Z,0
2018-09-11T02:40:56.970Z,0
2018-09-11T02:41:57.249Z,0
2018-09-11T02:42:56.916Z,0
2018-09-11T02:43:57.336Z,0
2018-09-11T02:44:57.051Z,0
2018-09-11T02:45:56.977Z,0
2018-09-11T02:46:57.178Z,0
2018-09-11T02:47:56.926Z,0
2018-09-11T02:48:56.992Z,0
2018-09-11T02:49:57.317Z,0
2018-09-11T02:50:56.970Z,0
2018-09-11T02:51:56.991Z,0
2018-09-11T02:52:57.244Z,0
2018-09-11T02:53:56.991Z,0
2018-09-11T02:54:56.956Z,0
2018-09-11T02:59:26.440Z,0
2018-09-11T03:00:26.568Z,0
2018-09-11T03:01:26.460Z,0
2018-09-11T03:02:26.479Z,0
2018-09-11T03:03:26.471Z,0
2018-09-11T03:04:26.766Z,0
2018-09-11T03:05:26.463Z,0
2018-09-11T03:06:26.468Z,0
2018-09-11T03:07:26.516Z,0
2018-09-11T03:08:26.441Z,0
2018-09-11T03:09:26.449Z,0
2018-09-11T03:10:26.830Z,0
2018-09-11T03:11:26.486Z,0
2018-09-11T03:12:26.506Z,0
2018-09-11T03:13:26.473Z,0
2018-09-11T03:14:26.449Z,0
2018-09-11T03:15:26.464Z,0
2018-09-11T03:16:27.782Z,0
2018-09-11T03:17:26.466Z,0
2018-09-11T03:18:26.443Z,0
2018-09-11T03:19:26.454Z,0
2018-09-11T03:20:26.493Z,0
2018-09-11T03:21:26.467Z,0
2018-09-11T03:22:26.834Z,0
2018-09-11T03:23:26.473Z,0
2018-09-11T03:24:26.466Z,0
2018-09-11T03:25:26.531Z,0
2018-09-11T03:26:26.451Z,0
2018-09-11T03:27:26.526Z,0
2018-09-11T03:28:26.834Z,0
2018-09-11T03:29:26.477Z,0
2018-09-11T03:30:26.547Z,0
2018-09-11T03:31:26.481Z,0
2018-09-11T03:32:26.503Z,0
2018-09-11T03:33:26.505Z,0
2018-09-11T03:34:26.892Z,0
2018-09-11T03:35:26.502Z,0
2018-09-11T03:36:26.555Z,0
2018-09-11T03:37:26.518Z,0
2018-09-11T03:38:26.500Z,0
2018-09-11T03:39:26.680Z,0
2018-09-11T03:40:26.928Z,0
2018-09-11T03:41:26.510Z,0
2018-09-11T03:42:26.523Z,0
2018-09-11T03:43:26.561Z,0
2018-09-11T03:44:26.640Z,0
2018-09-11T03:45:26.574Z,0
2018-09-11T03:46:28.914Z,0
2018-09-11T03:47:26.522Z,0
2018-09-11T03:48:26.531Z,0
2018-09-11T03:49:26.537Z,0
2018-09-11T03:50:26.538Z,0
2018-09-11T03:51:26.575Z,0
2018-09-11T03:52:27.936Z,0
2018-09-11T03:53:26.519Z,0
2018-09-11T03:58:43.608Z,0
2018-09-11T03:58:56.284Z,0
2018-09-11T03:59:55.897Z,0
2018-09-11T04:00:55.932Z,0
2018-09-11T04:01:55.881Z,0
2018-09-11T04:02:55.880Z,0
2018-09-11T04:03:55.906Z,0
2018-09-11T04:04:56.268Z,0
2018-09-11T04:05:55.990Z,0
2018-09-11T04:06:55.971Z,0
2018-09-11T04:07:55.875Z,0
2018-09-11T04:08:55.904Z,0
2018-09-11T04:09:55.945Z,0
2018-09-11T04:10:56.293Z,0
2018-09-11T04:11:55.925Z,0
2018-09-11T04:12:55.912Z,0
2018-09-11T04:13:55.957Z,0
2018-09-11T04:14:55.908Z,0
2018-09-11T04:15:55.934Z,0
2018-09-11T04:16:56.230Z,0
2018-09-11T04:17:55.910Z,0
2018-09-11T04:18:56.125Z,0
2018-09-11T04:19:56.048Z,0
2018-09-11T04:20:56.056Z,0
2018-09-11T04:21:55.936Z,0
2018-09-11T04:22:56.283Z,0
2018-09-11T04:23:55.985Z,0
2018-09-11T04:24:55.952Z,0
2018-09-11T04:25:56.304Z,0
2018-09-11T04:26:56.191Z,0
2018-09-11T04:27:56.222Z,0
2018-09-11T04:28:56.532Z,0
2018-09-11T04:29:55.956Z,0
2018-09-11T04:30:55.920Z,0
2018-09-11T04:31:55.963Z,4
2018-09-11T04:32:55.897Z,4
2018-09-11T04:33:55.939Z,0
2018-09-11T04:34:56.364Z,0
2018-09-11T04:35:56.046Z,4
2018-09-11T04:36:55.961Z,4
2018-09-11T04:37:55.978Z,4
2018-09-11T04:38:55.947Z,0
2018-09-11T04:39:55.926Z,4
2018-09-11T04:40:58.347Z,4
2018-09-11T04:41:55.962Z,8
2018-09-11T04:42:56.196Z,4
2018-09-11T04:43:55.944Z,8
2018-09-11T04:44:56.773Z,4
2018-09-11T04:50:13.282Z,12
2018-09-11T04:50:25.583Z,8
2018-09-11T04:51:25.547Z,12
2018-09-11T04:52:25.561Z,12
2018-09-11T04:53:25.559Z,12
2018-09-11T04:54:30.684Z,16
2018-09-11T04:55:25.615Z,16
2018-09-11T04:56:25.613Z,20
2018-09-11T04:57:25.536Z,20
2018-09-11T04:58:25.582Z,20
2018-09-11T04:59:25.623Z,24
2018-09-11T05:00:28.438Z,24
2018-09-11T05:01:25.653Z,28
2018-09-11T05:02:25.570Z,28
2018-09-11T05:03:25.545Z,28
2018-09-11T05:04:25.570Z,32
2018-09-11T05:05:25.578Z,32
2018-09-11T05:06:25.940Z,32
2018-09-11T05:07:25.635Z,36
2018-09-11T05:08:25.576Z,40
2018-09-11T05:09:25.642Z,44
2018-09-11T05:10:25.657Z,40
2018-09-11T05:11:25.536Z,44
2018-09-11T05:12:25.920Z,44
2018-09-11T05:13:25.625Z,48
2018-09-11T05:14:25.599Z,48
2018-09-11T05:15:25.604Z,52
2018-09-11T05:16:25.573Z,52
2018-09-11T05:17:25.584Z,56
2018-09-11T05:18:26.943Z,60
2018-09-11T05:19:25.724Z,64
2018-09-11T05:20:25.596Z,68
2018-09-11T05:21:25.584Z,68
2018-09-11T05:22:25.608Z,72
2018-09-11T05:23:25.590Z,72
2018-09-11T05:24:25.956Z,72
2018-09-11T05:25:25.656Z,80
2018-09-11T05:26:25.671Z,80
2018-09-11T05:27:26.102Z,84
2018-09-11T05:28:25.569Z,88
2018-09-11T05:29:25.660Z,88
2018-09-11T05:30:25.965Z,92
2018-09-11T05:31:25.668Z,92
2018-09-11T05:32:25.601Z,96
2018-09-11T05:33:25.619Z,100
2018-09-11T05:34:25.609Z,100
2018-09-11T05:35:25.924Z,104
2018-09-11T05:36:25.928Z,104
2018-09-11T05:37:25.671Z,108
2018-09-11T05:38:25.633Z,108
2018-09-11T05:39:25.652Z,108
2018-09-11T05:40:25.684Z,108
2018-09-11T05:41:26.282Z,124
2018-09-11T05:42:25.777Z,132
2018-09-11T05:43:25.623Z,128
2018-09-11T05:44:25.887Z,124
2018-09-11T05:45:25.634Z,124
2018-09-11T05:46:25.609Z,132
2018-09-11T05:47:25.803Z,140
2018-09-11T05:48:26.013Z,144
2018-09-11T05:49:25.652Z,152
2018-09-11T05:50:25.651Z,160
2018-09-11T05:51:25.640Z,168
2018-09-11T05:52:25.644Z,172
2018-09-11T05:53:25.666Z,180
2018-09-11T05:54:25.954Z,180
2018-09-11T05:55:25.655Z,184
2018-09-11T05:56:25.662Z,192
2018-09-11T05:57:25.660Z,196
2018-09-11T05:58:25.894Z,200
2018-09-11T05:59:25.654Z,196
2018-09-11T06:00:27.018Z,204
2018-09-11T06:01:25.650Z,220
2018-09-11T06:02:25.662Z,228
2018-09-11T06:03:25.667Z,224
2018-09-11T06:04:25.677Z,236
2018-09-11T06:05:25.675Z,256
2018-09-11T06:06:25.935Z,248
2018-09-11T06:07:25.626Z,248
2018-09-11T06:08:25.627Z,256
2018-09-11T06:09:25.752Z,264
2018-09-11T06:10:25.677Z,268
2018-09-11T06:11:25.665Z,280
2018-09-11T06:14:10.238Z,316
2018-09-11T06:14:25.670Z,328
2018-09-11T06:15:25.684Z,356
2018-09-11T06:16:25.898Z,360
2018-09-11T06:17:25.727Z,388
2018-09-11T06:18:25.738Z,440
2018-09-11T06:19:26.018Z,536
2018-09-11T06:20:25.723Z,616
2018-09-11T06:21:25.755Z,644
2018-09-11T06:22:25.897Z,632
2018-09-11T06:23:25.700Z,548
2018-09-11T06:24:25.714Z,564
2018-09-11T06:25:26.005Z,584
2018-09-11T06:26:25.885Z,592
2018-09-11T06:27:25.682Z,604
2018-09-11T06:28:25.862Z,664
2018-09-11T06:29:25.801Z,692
2018-09-11T06:30:26.002Z,756
2018-09-11T06:31:25.988Z,628
2018-09-11T06:32:25.726Z,612
2018-09-11T06:33:26.048Z,640
2018-09-11T06:34:25.706Z,704
2018-09-11T06:35:25.923Z,652
2018-09-11T06:36:25.694Z,624
2018-09-11T06:37:26.140Z,632
2018-09-11T06:38:25.752Z,716
2018-09-11T06:39:25.697Z,756
2018-09-11T06:40:26.972Z,828
2018-09-11T06:41:26.109Z,784
2018-09-11T06:42:25.755Z,704
2018-09-11T06:43:26.113Z,980
2018-09-11T06:44:25.734Z,884
2018-09-11T06:45:25.733Z,872
2018-09-11T06:46:25.693Z,972
2018-09-11T06:47:25.764Z,684
2018-09-11T06:48:25.762Z,884
2018-09-11T06:50:00.522Z,1148
2018-09-11T06:50:25.810Z,1260
2018-09-11T06:51:25.774Z,1588
2018-09-11T06:52:25.720Z,1860
2018-09-11T06:53:25.794Z,1752
2018-09-11T06:54:25.769Z,1876
2018-09-11T06:55:29.534Z,2136
2018-09-11T06:56:25.749Z,1916
2018-09-11T06:57:25.792Z,1916
2018-09-11T06:58:25.769Z,1604
2018-09-11T06:59:25.825Z,1964
2018-09-11T07:00:25.795Z,2076
2018-09-11T07:01:26.214Z,2068
2018-09-11T07:02:25.818Z,2092
2018-09-11T07:03:25.798Z,2196
2018-09-11T07:04:25.862Z,2512
2018-09-11T07:05:25.774Z,2852
2018-09-11T07:06:25.801Z,2536
2018-09-11T07:07:26.151Z,2220
2018-09-11T07:08:25.861Z,2216
2018-09-11T07:09:25.758Z,2904
2018-09-11T07:10:25.928Z,2840
2018-09-11T07:11:25.797Z,3156
2018-09-11T07:12:25.755Z,2604
2018-09-11T07:13:26.442Z,3856
2018-09-11T07:14:26.058Z,3728
2018-09-11T07:15:25.798Z,3472
2018-09-11T07:16:26.071Z,3248
2018-09-11T07:17:25.804Z,2588
2018-09-11T07:18:25.796Z,2896
2018-09-11T07:19:26.208Z,1784
2018-09-11T07:20:26.027Z,2440
2018-09-11T07:21:25.834Z,2428
2018-09-11T07:22:25.883Z,2432
2018-09-11T07:23:25.808Z,2624
2018-09-11T07:24:25.786Z,2448
2018-09-11T07:25:26.134Z,2968
2018-09-11T07:26:25.993Z,2312
2018-09-11T07:27:25.793Z,2764
2018-09-11T07:28:25.819Z,3376
2018-09-11T07:29:25.760Z,3932
2018-09-11T07:30:25.975Z,1536
2018-09-11T07:31:26.336Z,3596
2018-09-11T07:32:25.946Z,3584
2018-09-11T07:33:25.817Z,4364
2018-09-11T07:34:25.814Z,4188
2018-09-11T07:35:25.817Z,3900
2018-09-11T07:36:25.953Z,4236
2018-09-11T07:37:26.110Z,4164
2018-09-11T07:38:25.816Z,4200
2018-09-11T07:39:25.856Z,4300
2018-09-11T07:40:25.775Z,4172
2018-09-11T07:41:25.862Z,3992
2018-09-11T07:42:25.842Z,3972
2018-09-11T07:43:27.581Z,3244
2018-09-11T07:50:52.266Z,3416
2018-09-11T07:51:04.499Z,3800
2018-09-11T07:52:04.505Z,3660
2018-09-11T07:53:04.638Z,3232
2018-09-11T07:54:04.545Z,3116
2018-09-11T07:55:04.519Z,2812
2018-09-11T07:56:04.933Z,2732
2018-09-11T07:57:04.563Z,2644
2018-09-11T07:58:04.697Z,2648
2018-09-11T07:59:04.527Z,2356
2018-09-11T08:00:04.554Z,3068
2018-09-11T08:01:04.527Z,3068
2018-09-11T08:02:04.889Z,2972
2018-09-11T08:03:05.052Z,2972
2018-09-11T08:04:04.525Z,2768
2018-09-11T08:05:04.542Z,2664
2018-09-11T08:06:04.564Z,2696
2018-09-11T08:07:04.532Z,1172
2018-09-11T08:08:04.839Z,2072
2018-09-11T08:09:04.554Z,1908
2018-09-11T08:10:04.590Z,2380
2018-09-11T08:11:04.517Z,1980
2018-09-11T08:12:04.754Z,2152
2018-09-11T08:13:04.541Z,2212
2018-09-11T08:14:04.958Z,2144
2018-09-11T08:15:04.583Z,1664
2018-09-11T08:16:04.558Z,1932
2018-09-11T08:17:04.580Z,1948
2018-09-11T08:18:04.879Z,1956
2018-09-11T08:19:04.864Z,1920
2018-09-11T08:20:05.070Z,1852
2018-09-11T08:21:04.567Z,1792
2018-09-11T08:22:04.563Z,1716
2018-09-11T08:23:04.574Z,1704
2018-09-11T08:24:04.569Z,1628
2018-09-11T08:25:04.547Z,1648
2018-09-11T08:26:05.041Z,1604
2018-09-11T08:27:04.601Z,1528
2018-09-11T08:28:04.578Z,1520
2018-09-11T08:29:04.553Z,1564
2018-09-11T08:30:04.591Z,1596
2018-09-11T08:31:04.567Z,1456
2018-09-11T08:32:05.051Z,1560
2018-09-11T08:33:04.579Z,1436
2018-09-11T08:34:04.570Z,1228
2018-09-11T08:35:04.589Z,1300
2018-09-11T08:36:04.559Z,1168
2018-09-11T08:37:04.587Z,1352
2018-09-11T08:38:05.925Z,1300
2018-09-11T08:39:04.582Z,1200
2018-09-11T08:40:04.570Z,1244
2018-09-11T08:41:04.700Z,1268
2018-09-11T08:42:04.595Z,1220
2018-09-11T08:43:04.602Z,1296
2018-09-11T08:44:05.977Z,1368
2018-09-11T08:45:04.582Z,1408
2018-09-11T08:46:04.593Z,1428
2018-09-11T08:47:04.626Z,1428
2018-09-11T08:48:04.634Z,1380
2018-09-11T08:49:04.880Z,1300
2018-09-11T08:50:05.182Z,1364
2018-09-11T08:51:04.631Z,1376
2018-09-11T08:52:04.747Z,1292
2018-09-11T08:53:04.639Z,1232
2018-09-11T08:54:04.665Z,1304
2018-09-11T08:55:04.608Z,1252
2018-09-11T08:56:05.018Z,1304
2018-09-11T08:57:04.618Z,1380
2018-09-11T08:58:04.624Z,1448
2018-09-11T08:59:04.630Z,1392
2018-09-11T09:00:04.620Z,1388
2018-09-11T09:01:04.714Z,1392
2018-09-11T09:02:04.969Z,1332
2018-09-11T09:03:04.660Z,1332
2018-09-11T09:04:04.714Z,1392
2018-09-11T09:05:04.637Z,1412
2018-09-11T09:06:04.726Z,1408
2018-09-11T09:07:04.658Z,1456
2018-09-11T09:08:04.991Z,1484
2018-09-11T09:09:04.645Z,1504
2018-09-11T09:10:04.846Z,1504
2018-09-11T09:11:04.646Z,1448
2018-09-11T09:12:04.641Z,1488
2018-09-11T09:13:04.650Z,1468
2018-09-11T09:14:05.035Z,1456
2018-09-11T09:15:04.648Z,1500
2018-09-11T09:16:05.366Z,1476
2018-09-11T09:17:04.696Z,1460
2018-09-11T09:18:04.685Z,1432
2018-09-11T09:19:04.688Z,1420
2018-09-11T09:20:06.040Z,1440
2018-09-11T09:21:04.843Z,1408
2018-09-11T09:22:04.662Z,1412
2018-09-11T09:23:04.703Z,1412
2018-09-11T09:24:04.651Z,1408
2018-09-11T09:25:04.649Z,1396
2018-09-11T09:26:05.015Z,1392
2018-09-11T09:27:04.864Z,1384
2018-09-11T09:28:04.719Z,1372
2018-09-11T09:29:04.686Z,1372
2018-09-11T09:30:04.725Z,1360
2018-09-11T09:31:04.739Z,1360
2018-09-11T09:32:05.100Z,1356
2018-09-11T09:33:04.687Z,1348
2018-09-11T09:34:04.689Z,1352
2018-09-11T09:35:04.810Z,1360
2018-09-11T09:36:04.813Z,1364
2018-09-11T09:37:04.854Z,1380
2018-09-11T09:38:05.090Z,1376
2018-09-11T09:39:04.687Z,1376
2018-09-11T09:40:04.713Z,1372
2018-09-11T09:41:05.145Z,1376
2018-09-11T09:42:04.712Z,1376
2018-09-11T09:43:04.717Z,1372
2018-09-11T09:44:05.202Z,1352
2018-09-11T09:45:04.687Z,1372
2018-09-11T09:46:04.745Z,1356
2018-09-11T09:47:04.723Z,1332
2018-09-11T09:48:04.778Z,1340
2018-09-11T09:49:04.713Z,1372
2018-09-11T09:50:05.065Z,1352
2018-09-11T09:51:04.799Z,1344
2018-09-11T09:52:04.771Z,1352
2018-09-11T09:53:04.709Z,1372
2018-09-11T09:54:04.759Z,1356
2018-09-11T09:55:04.723Z,1380
2018-09-11T09:56:05.120Z,1400
2018-09-11T09:57:04.724Z,1380
2018-09-11T09:58:04.757Z,1364
2018-09-11T09:59:04.762Z,1384
2018-09-11T10:00:04.740Z,1412
2018-09-11T10:01:05.046Z,1416
2018-09-11T10:02:05.084Z,1404
2018-09-11T10:03:04.747Z,1320
2018-09-11T10:04:05.072Z,1388
2018-09-11T10:05:04.892Z,1352
2018-09-11T10:06:04.796Z,1344
2018-09-11T10:07:04.915Z,1476
2018-09-11T10:08:06.115Z,1480
2018-09-11T10:09:04.835Z,1484
2018-09-11T10:10:04.783Z,1508
2018-09-11T10:11:04.772Z,1500
2018-09-11T10:12:04.799Z,1516
2018-09-11T10:13:04.756Z,1520
2018-09-11T10:14:05.048Z,1528
2018-09-11T10:15:04.792Z,1468
2018-09-11T10:16:04.825Z,884
2018-09-11T10:17:04.830Z,1244
2018-09-11T10:18:04.774Z,1504
2018-09-11T10:19:04.793Z,1484
2018-09-11T10:20:06.152Z,1108
2018-09-11T10:21:04.805Z,980
2018-09-11T10:22:04.803Z,1172
2018-09-11T10:23:05.088Z,1340
2018-09-11T10:24:04.811Z,1444
2018-09-11T10:25:04.781Z,1448
2018-09-11T10:26:05.198Z,1368
2018-09-11T10:27:04.792Z,1572
2018-09-11T10:28:04.832Z,1596
2018-09-11T10:29:04.837Z,1548
2018-09-11T10:30:04.846Z,1440
2018-09-11T10:31:04.832Z,1456
2018-09-11T10:32:05.148Z,1528
2018-09-11T10:33:04.811Z,1316
2018-09-11T10:34:04.852Z,1252
2018-09-11T10:35:05.058Z,792
2018-09-11T10:36:05.281Z,956
2018-09-11T10:37:04.857Z,996
2018-09-11T10:38:05.148Z,1000
2018-09-11T10:39:04.815Z,1016
2018-09-11T10:40:05.156Z,1036
2018-09-11T10:41:04.831Z,1060
2018-09-11T10:42:04.959Z,1028
2018-09-11T10:49:31.612Z,596
2018-09-11T10:49:43.884Z,576
2018-09-11T10:50:43.856Z,644
2018-09-11T10:51:43.931Z,784
2018-09-11T10:52:43.875Z,584
2018-09-11T10:53:43.892Z,492
2018-09-11T10:54:45.227Z,532
2018-09-11T10:55:43.897Z,664
2018-09-11T10:56:44.210Z,936
2018-09-11T10:57:44.158Z,1072
2018-09-11T10:58:43.835Z,888
2018-09-11T10:59:43.882Z,736
2018-09-11T11:00:44.200Z,904
2018-09-11T11:01:43.926Z,868
2018-09-11T11:02:43.871Z,620
2018-09-11T11:03:43.910Z,964
2018-09-11T11:04:43.901Z,1432
2018-09-11T11:05:43.918Z,1384
2018-09-11T11:06:44.270Z,1264
2018-09-11T11:07:43.908Z,1296
2018-09-11T11:08:43.911Z,1340
2018-09-11T11:09:43.876Z,1276
2018-09-11T11:10:43.892Z,1360
2018-09-11T11:11:43.898Z,1316
2018-09-11T11:12:44.209Z,1256
2018-09-11T11:13:43.915Z,1304
2018-09-11T11:14:43.916Z,1352
2018-09-11T11:15:43.901Z,1280
2018-09-11T11:16:43.908Z,1316
2018-09-11T11:17:43.906Z,1308
2018-09-11T11:18:44.256Z,1328
2018-09-11T11:19:43.932Z,1344
2018-09-11T11:20:43.959Z,1352
2018-09-11T11:21:43.936Z,1216
2018-09-11T11:22:43.902Z,1324
2018-09-11T11:23:43.930Z,1372
2018-09-11T11:24:44.300Z,1392
2018-09-11T11:25:43.959Z,1392
2018-09-11T11:26:43.936Z,1388
2018-09-11T11:27:43.927Z,1372
2018-09-11T11:28:44.006Z,1264
2018-09-11T11:29:43.942Z,1224
2018-09-11T11:30:46.378Z,1316
2018-09-11T11:31:43.934Z,876
2018-09-11T11:32:43.941Z,1256
2018-09-11T11:33:43.918Z,1364
2018-09-11T11:34:43.969Z,1280
2018-09-11T11:35:43.918Z,1352
2018-09-11T11:36:47.746Z,1356
2018-09-11T11:37:43.930Z,1348
2018-09-11T11:38:43.937Z,1352
2018-09-11T11:39:43.988Z,1172
2018-09-11T11:40:43.947Z,1248
2018-09-11T11:48:11.281Z,1192
2018-09-11T11:48:23.782Z,1348
2018-09-11T11:49:23.605Z,1332
2018-09-11T11:50:23.512Z,1328
2018-09-11T11:51:23.552Z,1316
2018-09-11T11:52:23.520Z,1304
2018-09-11T11:53:23.894Z,1296
2018-09-11T11:54:23.518Z,1308
2018-09-11T11:55:23.697Z,1288
2018-09-11T11:56:23.576Z,1308
2018-09-11T11:57:23.536Z,1328
2018-09-11T11:58:23.576Z,1324
2018-09-11T11:59:23.975Z,1324
2018-09-11T12:01:43.705Z,1308
2018-09-11T12:02:43.445Z,1316
2018-09-11T12:03:43.464Z,1320
2018-09-11T12:04:43.832Z,1320
2018-09-11T12:05:43.494Z,1324
2018-09-11T12:06:43.494Z,1308
2018-09-11T12:07:43.618Z,1308
2018-09-11T12:08:43.482Z,1300
2018-09-11T12:09:43.723Z,1316
2018-09-11T12:10:44.890Z,1328
2018-09-11T12:11:43.640Z,1316
2018-09-11T12:12:43.476Z,1320
2018-09-11T12:13:43.476Z,1308
2018-09-11T12:14:43.451Z,1312
2018-09-11T12:15:43.454Z,1312
2018-09-11T12:16:43.806Z,1308
2018-09-11T12:17:43.485Z,1280
2018-09-11T12:18:43.508Z,1312
2018-09-11T12:19:43.550Z,1316
2018-09-11T12:20:43.485Z,1316
2018-09-11T12:21:43.776Z,1296
2018-09-11T12:22:43.873Z,1156
2018-09-11T12:23:43.541Z,988
2018-09-11T12:24:43.513Z,1172
2018-09-11T12:25:43.592Z,1180
2018-09-11T12:26:43.658Z,1248
2018-09-11T12:27:43.471Z,1164
2018-09-11T12:28:44.027Z,1152
2018-09-11T12:29:43.515Z,1272
2018-09-11T12:30:43.500Z,1304
2018-09-11T12:31:43.503Z,1304
2018-09-11T12:32:43.551Z,1312
2018-09-11T12:33:43.576Z,1288
2018-09-11T12:34:43.835Z,1284
2018-09-11T12:35:43.519Z,1288
2018-09-11T12:36:43.559Z,1244
2018-09-11T12:37:43.875Z,1264
2018-09-11T12:38:44.119Z,1220
2018-09-11T12:39:43.581Z,1200
2018-09-11T12:40:43.840Z,1140
2018-09-11T12:41:43.502Z,880
2018-09-11T12:42:43.539Z,1080
2018-09-11T12:43:43.535Z,1108
2018-09-11T12:51:11.984Z,1280
2018-09-11T12:52:28.957Z,1276
2018-09-11T12:52:41.525Z,1268
2018-09-11T12:53:41.226Z,1244
2018-09-11T12:54:41.340Z,1172
2018-09-11T12:55:41.262Z,1264
2018-09-11T12:56:41.605Z,1252
2018-09-11T12:57:41.257Z,1248
2018-09-11T12:58:41.539Z,1240
2018-09-11T12:59:41.264Z,1244
2018-09-11T13:00:41.237Z,1244
2018-09-11T13:01:41.246Z,1224
2018-09-11T13:02:41.967Z,1216
2018-09-11T13:03:41.288Z,1180
2018-09-11T13:04:41.294Z,1232
2018-09-11T13:05:41.279Z,1244
2018-09-11T13:12:21.039Z,1060
2018-09-11T13:13:20.745Z,1028
2018-09-11T13:14:20.754Z,1024
2018-09-11T13:15:20.811Z,976
2018-09-11T13:16:20.857Z,928
2018-09-11T13:17:21.070Z,912
2018-09-11T13:18:20.789Z,972
2018-09-11T13:19:20.743Z,996
2018-09-11T13:20:20.730Z,1148
2018-09-11T13:21:20.743Z,1136
2018-09-11T13:22:20.749Z,1136
2018-09-11T13:23:21.106Z,1176
2018-09-11T13:24:20.731Z,1148
2018-09-11T13:25:20.961Z,1164
2018-09-11T13:26:20.823Z,1144
2018-09-11T13:27:20.750Z,1144
2018-09-11T13:28:20.726Z,1136
2018-09-11T13:29:21.134Z,1136
2018-09-11T13:30:20.757Z,1120
2018-09-11T13:31:20.862Z,1128
2018-09-11T13:32:20.765Z,1100
2018-09-11T13:33:20.761Z,1132
2018-09-11T13:34:21.064Z,1084
2018-09-11T13:35:21.071Z,1084
2018-09-11T13:36:20.809Z,1068
2018-09-11T13:37:20.786Z,1072
2018-09-11T13:38:20.757Z,1064
2018-09-11T13:39:20.771Z,1060
2018-09-11T13:40:20.796Z,1072
2018-09-11T13:41:21.124Z,1056
2018-09-11T13:42:21.053Z,1048
2018-09-11T13:54:07.430Z,1016
2018-09-11T13:54:19.698Z,1028
2018-09-11T13:55:19.714Z,1036
2018-09-11T13:56:19.811Z,1032
2018-09-11T13:57:19.680Z,1024
2018-09-11T13:58:20.098Z,1024
2018-09-11T13:59:19.696Z,1020
2018-09-11T14:00:20.058Z,996
2018-09-11T14:01:19.687Z,928
2018-09-11T14:02:19.762Z,1040
2018-09-11T14:03:19.727Z,1024
2018-09-11T14:04:20.047Z,1012
2018-09-11T14:05:19.778Z,1000
2018-09-11T14:06:20.027Z,996
2018-09-11T14:07:20.019Z,1004
2018-09-11T14:08:20.147Z,1016
2018-09-11T14:09:19.721Z,1000
2018-09-11T14:10:20.090Z,1004
2018-09-11T14:11:19.701Z,1000
2018-09-11T14:12:19.724Z,992
2018-09-11T14:13:20.059Z,976
2018-09-11T14:14:19.980Z,1000
2018-09-11T14:15:19.799Z,988
2018-09-11T14:16:20.087Z,980
2018-09-11T14:17:19.723Z,984
2018-09-11T14:18:19.801Z,972
2018-09-11T14:19:19.727Z,968
2018-09-11T14:20:19.799Z,952
2018-09-11T14:21:19.929Z,960
2018-09-11T14:22:20.062Z,956
2018-09-11T14:23:19.764Z,956
2018-09-11T14:24:19.770Z,956
2018-09-11T14:29:37.208Z,900
2018-09-11T14:29:49.866Z,900
2018-09-11T14:30:49.731Z,900
2018-09-11T14:31:49.599Z,896
2018-09-11T14:32:49.642Z,888
2018-09-11T14:33:49.853Z,876
2018-09-11T14:34:49.656Z,876
2018-09-11T14:35:49.573Z,872
2018-09-11T14:36:49.570Z,860
2018-09-11T14:37:49.576Z,848
2018-09-11T14:38:49.547Z,836
2018-09-11T14:39:49.971Z,868
2018-09-11T14:40:49.553Z,856
2018-09-11T14:41:49.606Z,848
2018-09-11T14:42:49.534Z,836
2018-09-11T14:43:49.643Z,828
2018-09-11T14:44:49.616Z,812
2018-09-11T14:45:50.007Z,816
2018-09-11T14:46:49.648Z,784
2018-09-11T14:47:49.625Z,776
2018-09-11T14:48:49.626Z,772
2018-09-11T14:49:49.591Z,752
2018-09-11T14:50:49.563Z,756
2018-09-11T14:51:50.962Z,760
2018-09-11T14:52:49.743Z,772
2018-09-11T14:53:49.570Z,744
2018-09-11T14:54:49.764Z,728
2018-09-11T14:55:49.959Z,736